Time;durP1;ratioP1;P1;durP2;ratioP2;P2;SDS_P1;SDS_P2;PMS_P1;PMS_P2;Temp;Humidity;BMP_temperature;BMP_pressure;BME280_temperature;BME280_humidity;BME280_pressure;Samples;Min_cycle;Max_cycle;Signal;HPM_P1;HPM_P2
2022/02/06 00:00:42;;;;;;;11.77;2.10;;;;;;;3.97;95.81;97926.03;5062928;28;20283;-68
2022/02/06 00:03:08;;;;;;;18.13;4.05;;;;;;;4.04;95.76;97944.69;5063016;28;20120;-68
2022/02/06 00:05:33;;;;;;;28.33;3.28;;;;;;;4.05;96.06;97942.97;5063398;28;20425;-68
2022/02/06 00:08:04;;;;;;;8.77;2.13;;;;;;;4.06;96.08;97934.38;5063313;28;20029;-67
2022/02/06 00:10:30;;;;;;;21.77;3.40;;;;;;;4.02;96.40;97922.50;5065698;28;20159;-67
2022/02/06 00:12:55;;;;;;;19.88;2.80;;;;;;;4.12;96.29;97939.38;5067308;28;20021;-66
2022/02/06 00:15:21;;;;;;;17.95;2.78;;;;;;;4.09;96.53;97926.63;5067389;28;20432;-66
2022/02/06 00:17:48;;;;;;;12.88;2.72;;;;;;;4.12;96.57;97929.13;5067223;28;20045;-68
2022/02/06 00:20:15;;;;;;;5.82;1.25;;;;;;;4.08;96.06;97932.66;5067286;28;20111;-68
2022/02/06 00:22:48;;;;;;;17.58;2.83;;;;;;;4.06;95.93;97926.69;5066551;28;20024;-68
2022/02/06 00:25:21;;;;;;;9.90;4.03;;;;;;;4.03;95.69;97931.91;5067022;28;20051;-68
2022/02/06 00:32:49;;;;;;;16.83;3.85;;;;;;;3.92;94.78;97944.97;5066653;28;20162;-69
2022/02/06 00:40:47;;;;;;;14.98;3.13;;;;;;;3.86;94.85;97958.78;5066838;28;20053;-69
2022/02/06 00:43:13;;;;;;;6.68;1.08;;;;;;;3.83;94.66;97969.94;5066462;28;20017;-69
2022/02/06 00:45:38;;;;;;;10.05;3.25;;;;;;;3.70;94.50;97938.56;5064270;28;20043;-69
2022/02/06 00:48:04;;;;;;;22.33;3.20;;;;;;;3.75;94.10;97942.75;5063874;28;20021;-68
2022/02/06 00:50:30;;;;;;;20.08;2.70;;;;;;;3.67;94.27;97953.19;5064121;28;20086;-69
2022/02/06 00:53:03;;;;;;;19.30;3.38;;;;;;;3.59;94.34;97948.19;5066249;28;20411;-69
2022/02/06 00:55:29;;;;;;;18.13;4.13;;;;;;;3.63;94.48;97946.41;5066704;28;20570;-69
2022/02/06 00:57:55;;;;;;;12.10;2.15;;;;;;;3.61;94.21;97935.34;5066439;28;20017;-69
2022/02/06 01:00:20;;;;;;;18.40;2.47;;;;;;;3.56;93.94;97915.72;5066147;28;20021;-68
2022/02/06 01:02:45;;;;;;;32.15;4.10;;;;;;;3.56;93.79;97909.78;5064812;28;20028;-69
2022/02/06 01:05:11;;;;;;;22.40;3.03;;;;;;;3.61;93.81;97897.69;5065201;28;20025;-68
2022/02/06 01:07:36;;;;;;;23.48;3.13;;;;;;;3.61;94.00;97881.47;5065887;28;20582;-68
2022/02/06 01:10:03;;;;;;;20.45;3.53;;;;;;;3.56;93.94;97881.56;5066390;28;20017;-68
2022/02/06 01:12:31;;;;;;;23.08;3.70;;;;;;;3.52;93.83;97867.09;5065171;28;20064;-68
2022/02/06 01:15:15;;;;;;;24.60;3.72;;;;;;;3.58;93.77;97885.75;5065320;28;20095;-68
2022/02/06 01:17:46;;;;;;;29.50;3.80;;;;;;;3.55;93.35;97888.41;5065130;28;20052;-68
2022/02/06 01:20:23;;;;;;;22.63;3.75;;;;;;;3.46;93.19;97893.72;5065968;28;20258;-69
2022/02/06 01:23:21;;;;;;;24.80;3.25;;;;;;;3.50;92.91;97907.34;5064738;28;20040;-69
2022/02/06 01:25:55;;;;;;;29.00;4.60;;;;;;;3.49;92.50;97918.47;5065997;28;20039;-67
2022/02/06 01:28:28;;;;;;;19.73;3.38;;;;;;;3.45;92.70;97923.66;5065842;28;20396;-66
2022/02/06 01:31:33;;;;;;;24.80;2.63;;;;;;;3.48;92.37;97938.16;5065910;28;20043;-66
2022/02/06 01:33:46;;;;;;;21.17;3.53;;;;;;;3.47;92.27;97927.03;5065363;28;20037;-67
2022/02/06 01:36:26;;;;;;;26.55;3.20;;;;;;;3.40;92.21;97922.06;5065899;28;20423;-66
2022/02/06 01:41:22;;;;;;;14.95;2.33;;;;;;;3.32;91.25;97920.47;5065445;28;20079;-65
2022/02/06 01:43:57;;;;;;;10.23;1.83;;;;;;;3.37;91.25;97929.81;5065745;28;20021;-66
2022/02/06 02:21:06;;;;;;;8.18;2.25;;;;;;;3.49;88.99;97883.41;5064876;28;20075;-66
2022/02/06 02:47:52;;;;;;;17.30;2.42;;;;;;;3.38;87.44;97882.75;5064226;28;20028;-64
2022/02/06 02:50:23;;;;;;;16.23;2.80;;;;;;;3.34;87.73;97880.25;5064564;28;20025;-66
2022/02/06 02:55:51;;;;;;;13.35;1.98;;;;;;;3.26;87.86;97897.50;5064464;28;20025;-64
2022/02/06 02:58:24;;;;;;;20.40;2.83;;;;;;;3.07;88.22;97887.59;5063776;28;20033;-64
2022/02/06 03:05:44;;;;;;;30.83;5.82;;;;;;;2.77;88.54;97878.75;5064233;28;20029;-65
2022/02/06 03:08:10;;;;;;;14.43;2.65;;;;;;;2.73;88.60;97880.53;5063912;28;20025;-65
2022/02/06 03:10:37;;;;;;;14.93;2.85;;;;;;;2.66;88.68;97876.38;5064125;28;20017;-65
2022/02/06 03:13:07;;;;;;;25.17;2.83;;;;;;;2.60;88.70;97867.09;5063804;28;20024;-64
2022/02/06 03:18:01;;;;;;;15.75;3.05;;;;;;;2.45;89.05;97884.41;5063754;28;20059;-64
2022/02/06 03:20:28;;;;;;;16.58;2.75;;;;;;;2.40;89.31;97886.19;5064022;28;20017;-64
2022/02/06 03:22:55;;;;;;;12.35;2.50;;;;;;;2.41;89.50;97882.75;5063491;28;20029;-64
2022/02/06 03:25:22;;;;;;;18.52;3.72;;;;;;;2.44;89.63;97885.28;5063686;28;20036;-65
2022/02/06 03:27:51;;;;;;;14.85;2.72;;;;;;;2.45;89.86;97879.28;5063105;28;20094;-65
2022/02/06 03:30:17;;;;;;;7.50;1.70;;;;;;;2.43;90.26;97870.75;5061488;28;20094;-65
2022/02/06 03:32:43;;;;;;;6.32;1.52;;;;;;;2.44;90.35;97869.91;5063019;28;20021;-64
2022/02/06 03:35:09;;;;;;;21.17;3.85;;;;;;;2.46;90.25;97865.59;5063657;28;20171;-64
2022/02/06 03:37:34;;;;;;;15.80;2.78;;;;;;;2.53;90.38;97855.25;5063370;28;20028;-65
2022/02/06 03:40:04;;;;;;;19.83;2.67;;;;;;;2.58;90.70;97854.31;5063671;28;20049;-64
2022/02/06 03:42:34;;;;;;;19.38;4.53;;;;;;;2.65;90.76;97849.91;5063475;28;20405;-65
2022/02/06 03:45:05;;;;;;;8.50;2.03;;;;;;;2.66;90.81;97843.06;5063036;28;20037;-65
2022/02/06 03:47:47;;;;;;;17.35;2.72;;;;;;;2.77;90.72;97845.44;5063461;28;20023;-65
2022/02/06 03:50:15;;;;;;;11.32;3.88;;;;;;;2.80;90.50;97838.53;5063430;28;20036;-64
2022/02/06 03:52:47;;;;;;;13.90;2.72;;;;;;;2.82;90.07;97838.53;5063169;28;20021;-65
2022/02/06 03:55:19;;;;;;;20.75;3.55;;;;;;;2.85;89.56;97841.88;5063515;28;20081;-65
2022/02/06 03:57:48;;;;;;;14.25;2.83;;;;;;;2.89;89.49;97834.13;5063423;28;20025;-65
2022/02/06 04:00:15;;;;;;;9.43;1.95;;;;;;;2.92;89.35;97832.38;5063303;28;20104;-65
2022/02/06 04:02:41;;;;;;;22.55;3.90;;;;;;;2.93;88.96;97823.78;5062985;28;20021;-65
2022/02/06 04:05:07;;;;;;;20.67;3.10;;;;;;;2.92;88.57;97829.81;5062049;28;20072;-65
2022/02/06 04:07:32;;;;;;;11.68;2.47;;;;;;;2.94;88.37;97825.47;5063181;28;20085;-65
2022/02/06 04:09:58;;;;;;;27.02;3.42;;;;;;;2.94;88.39;97816.97;5063392;28;20048;-65
2022/02/06 04:12:24;;;;;;;20.30;2.90;;;;;;;2.97;88.10;97815.16;5063192;28;20028;-65
2022/02/06 04:15:13;;;;;;;25.20;3.40;;;;;;;2.91;87.66;97809.31;5063249;28;20025;-65
2022/02/06 04:17:46;;;;;;;33.42;4.07;;;;;;;2.81;87.23;97799.22;5062941;28;20029;-65
2022/02/06 04:20:11;;;;;;;38.17;5.18;;;;;;;2.80;87.27;97817.19;5063238;28;20021;-65
2022/02/06 04:22:37;;;;;;;18.67;3.25;;;;;;;2.72;87.20;97810.50;5063099;28;20024;-65
2022/02/06 04:25:03;;;;;;;7.63;2.30;;;;;;;2.69;87.23;97819.97;5063065;28;20021;-65
2022/02/06 04:27:30;;;;;;;13.93;2.08;;;;;;;2.62;86.81;97823.50;5062942;28;20587;-65
2022/02/06 04:29:55;;;;;;;16.25;2.63;;;;;;;2.59;86.85;97825.25;5062984;28;20032;-65
2022/02/06 04:32:21;;;;;;;14.18;2.47;;;;;;;2.60;86.52;97826.09;5063011;28;20017;-65
2022/02/06 04:34:47;;;;;;;19.80;3.45;;;;;;;2.58;86.82;97818.44;5063131;28;20388;-65
2022/02/06 04:42:18;;;;;;;3.90;1.73;;;;;;;2.53;86.99;97816.81;5062922;28;20053;-65
2022/02/06 05:19:50;;;;;;;8.37;1.47;;;;;;;2.50;85.77;97778.47;5066067;28;20037;-64
2022/02/06 05:34:44;;;;;;;18.35;4.00;;;;;;;2.52;85.57;97780.13;5065712;28;20033;-65
2022/02/06 05:37:09;;;;;;;18.98;3.15;;;;;;;2.55;85.94;97781.78;5065728;28;20029;-65
2022/02/06 05:39:34;;;;;;;22.80;3.53;;;;;;;2.56;85.44;97775.78;5065642;28;20139;-64
2022/02/06 05:42:00;;;;;;;32.45;3.25;;;;;;;2.57;85.43;97769.81;5065349;28;20028;-65
2022/02/06 05:44:25;;;;;;;18.17;2.90;;;;;;;2.61;85.58;97774.00;5065708;28;20063;-64
2022/02/06 05:46:50;;;;;;;17.02;3.40;;;;;;;2.68;85.66;97767.03;5065662;28;20029;-65
2022/02/06 05:49:16;;;;;;;18.08;3.13;;;;;;;2.72;85.50;97769.50;5065316;28;20029;-65
2022/02/06 05:51:43;;;;;;;21.42;3.38;;;;;;;2.75;85.11;97765.22;5065574;28;20028;-64
2022/02/06 05:54:10;;;;;;;15.90;3.30;;;;;;;2.77;85.05;97764.28;5065399;28;20108;-65
2022/02/06 05:56:35;;;;;;;19.52;3.45;;;;;;;2.77;85.20;97759.19;5065408;28;20082;-64
2022/02/06 05:59:02;;;;;;;18.90;3.33;;;;;;;2.77;84.96;97763.44;5065230;28;20032;-64
2022/02/06 06:01:28;;;;;;;24.08;4.80;;;;;;;2.78;85.62;97765.16;5065277;28;20109;-65
2022/02/06 06:03:53;;;;;;;16.25;3.90;;;;;;;2.81;86.14;97765.91;5065329;28;20280;-64
2022/02/06 06:06:18;;;;;;;33.63;5.85;;;;;;;2.83;86.26;97771.00;5065487;28;20029;-64
2022/02/06 06:08:44;;;;;;;23.35;3.30;;;;;;;2.79;86.42;97769.41;5064695;28;20085;-64
2022/02/06 06:11:09;;;;;;;29.40;3.58;;;;;;;2.72;86.99;97759.25;5065206;28;20025;-64
2022/02/06 06:13:34;;;;;;;20.55;4.13;;;;;;;2.67;87.07;97755.94;5065039;28;20052;-64
2022/02/06 06:16:00;;;;;;;14.90;3.10;;;;;;;2.63;87.00;97754.31;5065062;28;20111;-64
2022/02/06 06:18:26;;;;;;;15.63;4.03;;;;;;;2.59;87.34;97748.41;5064875;28;20056;-64
2022/02/06 06:20:52;;;;;;;22.80;3.78;;;;;;;2.55;87.51;97753.63;5065039;28;20029;-64
2022/02/06 06:23:18;;;;;;;24.70;6.47;;;;;;;2.48;87.33;97751.16;5064559;28;20045;-64
2022/02/06 06:25:47;;;;;;;32.17;4.00;;;;;;;2.45;87.54;97751.22;5064948;28;20038;-64
2022/02/06 06:28:12;;;;;;;21.77;3.75;;;;;;;2.41;87.71;97752.13;5064770;28;20048;-64
2022/02/06 06:30:38;;;;;;;24.10;4.93;;;;;;;2.38;87.69;97749.63;5064727;28;20020;-65
2022/02/06 06:33:05;;;;;;;31.70;4.72;;;;;;;2.35;87.42;97739.44;5063190;28;20111;-64
2022/02/06 06:35:30;;;;;;;27.27;4.22;;;;;;;2.31;87.34;97732.72;5064934;28;20029;-64
2022/02/06 06:37:58;;;;;;;23.35;4.32;;;;;;;2.25;87.60;97732.81;5064871;28;20021;-64
2022/02/06 06:40:25;;;;;;;20.30;3.20;;;;;;;2.21;87.63;97727.75;5064466;28;20068;-64
2022/02/06 06:42:50;;;;;;;16.58;3.33;;;;;;;2.25;87.66;97730.25;5064338;28;20021;-64
2022/02/06 06:45:15;;;;;;;25.80;3.40;;;;;;;2.27;87.60;97725.97;5064514;28;20024;-64
2022/02/06 06:47:41;;;;;;;19.75;3.33;;;;;;;2.31;87.26;97725.03;5064431;28;20017;-64
2022/02/06 06:50:06;;;;;;;29.60;4.03;;;;;;;2.34;87.53;97717.28;5064372;28;20052;-65
2022/02/06 06:52:32;;;;;;;16.23;3.15;;;;;;;2.40;87.54;97727.41;5064278;28;20032;-65
2022/02/06 06:55:01;;;;;;;20.05;2.85;;;;;;;2.34;86.92;97720.69;5064474;28;20084;-65
2022/02/06 06:57:34;;;;;;;10.77;1.75;;;;;;;2.40;86.93;97717.16;5064344;28;20028;-65
2022/02/06 07:00:54;;;;;;;14.80;2.90;;;;;;;2.47;86.03;97723.03;5064473;28;20025;-66
2022/02/06 07:02:48;;;;;;;14.85;2.47;;;;;;;2.48;86.03;97702.50;5060898;28;20268;-66
2022/02/06 07:05:13;;;;;;;11.52;2.80;;;;;;;2.48;85.85;97702.50;5064157;28;20386;-66
2022/02/06 07:07:38;;;;;;;30.55;2.97;;;;;;;2.48;85.92;97704.22;5064088;28;20084;-66
2022/02/06 07:10:05;;;;;;;30.80;4.10;;;;;;;2.48;85.80;97712.75;5064140;28;20035;-65
2022/02/06 07:12:30;;;;;;;17.00;3.20;;;;;;;2.41;85.92;97708.59;5064081;28;20013;-65
2022/02/06 07:14:56;;;;;;;14.98;2.78;;;;;;;2.38;86.01;97703.53;5063987;28;20039;-65
2022/02/06 07:17:21;;;;;;;17.55;3.13;;;;;;;2.37;86.24;97711.25;5064166;28;20462;-66
2022/02/06 07:19:48;;;;;;;21.02;4.03;;;;;;;2.35;86.25;97703.59;5062804;28;20025;-65
2022/02/06 07:22:16;;;;;;;14.65;2.97;;;;;;;2.39;86.66;97710.38;5063861;28;20060;-66
2022/02/06 07:24:47;;;;;;;11.77;2.70;;;;;;;2.39;86.88;97709.50;5063766;28;20036;-66
2022/02/06 07:27:25;;;;;;;16.38;3.42;;;;;;;2.41;87.01;97707.78;5063286;28;20024;-65
2022/02/06 07:29:52;;;;;;;15.75;3.20;;;;;;;2.45;87.38;97714.53;5063019;28;20029;-65
2022/02/06 07:32:18;;;;;;;15.40;2.78;;;;;;;2.43;87.54;97714.56;5063627;28;20029;-65
2022/02/06 07:34:43;;;;;;;31.38;3.42;;;;;;;2.44;87.63;97713.69;5063548;28;20604;-65
2022/02/06 07:37:09;;;;;;;9.00;1.98;;;;;;;2.49;87.90;97718.72;5063719;28;20025;-65
2022/02/06 07:39:34;;;;;;;17.48;2.80;;;;;;;2.50;87.91;97706.75;5062953;28;20029;-64
2022/02/06 07:42:00;;;;;;;18.05;3.42;;;;;;;2.58;88.07;97717.69;5063133;28;20025;-67
2022/02/06 07:44:25;;;;;;;18.65;4.15;;;;;;;2.60;88.04;97714.22;5063298;28;20094;-65
2022/02/06 07:47:00;;;;;;;14.73;2.55;;;;;;;2.62;87.90;97709.06;5063514;28;20025;-65
2022/02/06 07:49:25;;;;;;;16.25;3.75;;;;;;;2.72;88.01;97702.03;5063260;28;20031;-65
2022/02/06 07:51:50;;;;;;;13.93;3.20;;;;;;;2.75;87.85;97696.03;5063410;28;20073;-66
2022/02/06 07:54:16;;;;;;;21.73;3.00;;;;;;;2.76;87.80;97696.00;5063415;28;20104;-66
2022/02/06 07:56:41;;;;;;;25.48;3.50;;;;;;;2.80;87.73;97694.19;5063311;28;20025;-65
2022/02/06 07:59:06;;;;;;;30.55;5.93;;;;;;;2.82;87.83;97692.47;5063311;28;20517;-66
2022/02/06 08:01:32;;;;;;;11.02;2.83;;;;;;;2.84;87.76;97688.97;5063372;28;20025;-65
2022/02/06 08:03:57;;;;;;;27.45;4.72;;;;;;;2.89;87.60;97686.31;5063078;28;20047;-64
2022/02/06 08:06:22;;;;;;;21.73;3.35;;;;;;;2.92;87.58;97693.97;5063301;28;20100;-64
2022/02/06 08:08:48;;;;;;;16.90;3.55;;;;;;;2.94;87.76;97681.94;5063190;28;20025;-65
2022/02/06 08:11:15;;;;;;;17.33;4.07;;;;;;;3.00;86.97;97682.69;5063039;28;20021;-65
2022/02/06 08:13:44;;;;;;;10.55;2.50;;;;;;;3.02;86.97;97680.94;5063014;28;20360;-65
2022/02/06 08:16:10;;;;;;;14.75;2.40;;;;;;;3.01;85.66;97681.81;5063302;28;20032;-65
2022/02/06 08:18:40;;;;;;;13.20;2.65;;;;;;;3.14;85.79;97688.38;5062926;28;20021;-65
2022/02/06 08:21:06;;;;;;;19.75;1.80;;;;;;;3.37;85.53;97684.41;5063106;28;20025;-65
2022/02/06 08:23:32;;;;;;;8.90;1.60;;;;;;;3.70;85.31;97687.09;5062709;28;20041;-65
2022/02/06 08:25:57;;;;;;;10.52;1.88;;;;;;;3.81;84.14;97688.53;5063146;28;20064;-65
2022/02/06 08:28:23;;;;;;;17.95;2.75;;;;;;;3.79;83.53;97686.00;5061414;28;20106;-65
2022/02/06 08:30:48;;;;;;;14.30;2.35;;;;;;;3.75;82.40;97684.41;5064582;28;20109;-65
2022/02/06 08:33:14;;;;;;;7.93;1.42;;;;;;;3.69;81.51;97685.38;5066694;28;20099;-65
2022/02/06 08:35:39;;;;;;;10.93;2.05;;;;;;;3.67;81.03;97688.88;5067034;28;20105;-65
2022/02/06 08:38:05;;;;;;;8.23;1.52;;;;;;;3.64;81.45;97679.53;5066753;28;20017;-65
2022/02/06 08:40:31;;;;;;;9.68;1.73;;;;;;;3.59;81.12;97696.75;5066796;28;20085;-65
2022/02/06 08:42:57;;;;;;;7.47;1.65;;;;;;;3.64;81.29;97694.09;5066776;28;20086;-65
2022/02/06 08:45:25;;;;;;;26.55;1.73;;;;;;;3.83;81.56;97702.19;5066653;28;20112;-66
2022/02/06 08:47:51;;;;;;;13.80;1.98;;;;;;;3.94;81.39;97695.06;5066588;28;20044;-66
2022/02/06 08:50:16;;;;;;;3.92;1.77;;;;;;;3.92;80.19;97683.97;5066591;28;20669;-66
2022/02/06 08:52:42;;;;;;;7.35;1.30;;;;;;;3.97;80.02;97674.44;5066506;28;20017;-66
2022/02/06 08:55:09;;;;;;;10.65;1.77;;;;;;;3.88;78.95;97679.81;5066758;28;20036;-66
2022/02/06 08:57:36;;;;;;;9.18;1.92;;;;;;;3.79;78.78;97673.19;5066587;28;20104;-67
2022/02/06 09:00:04;;;;;;;13.93;2.13;;;;;;;3.74;79.17;97674.19;5066329;28;20025;-66
2022/02/06 09:02:29;;;;;;;10.25;2.13;;;;;;;3.74;80.22;97687.00;5066140;28;20021;-65
2022/02/06 09:04:55;;;;;;;13.88;3.60;;;;;;;3.74;79.76;97674.19;5066227;28;20064;-66
2022/02/06 09:07:22;;;;;;;2.65;1.20;;;;;;;3.79;79.33;97670.59;5066397;28;20033;-66
2022/02/06 09:09:50;;;;;;;10.20;1.77;;;;;;;3.78;79.43;97663.81;5065993;28;20029;-67
2022/02/06 09:12:16;;;;;;;10.02;1.70;;;;;;;3.93;79.84;97662.56;5065837;28;20017;-67
2022/02/06 09:14:42;;;;;;;5.95;1.20;;;;;;;4.19;81.38;97660.19;5066003;28;20024;-66
2022/02/06 09:17:09;;;;;;;7.90;1.98;;;;;;;4.80;80.89;97659.38;5066122;28;20086;-66
2022/02/06 09:19:36;;;;;;;14.30;2.33;;;;;;;5.01;79.59;97641.63;5065692;28;20112;-66
2022/02/06 09:22:02;;;;;;;9.50;1.48;;;;;;;4.99;79.31;97638.25;5066180;28;20449;-67
2022/02/06 09:24:28;;;;;;;11.57;2.38;;;;;;;4.80;77.95;97646.50;5065877;28;20039;-68
2022/02/06 09:26:53;;;;;;;12.05;2.50;;;;;;;4.66;78.23;97649.50;5065880;28;20045;-65
2022/02/06 09:29:18;;;;;;;13.85;2.90;;;;;;;4.49;77.88;97655.09;5065717;28;20536;-66
2022/02/06 09:31:49;;;;;;;15.35;2.45;;;;;;;4.36;78.78;97651.19;5065782;28;20017;-66
2022/02/06 09:36:42;;;;;;;10.30;2.42;;;;;;;4.05;78.81;97658.00;5065929;28;20029;-66
2022/02/06 09:39:09;;;;;;;14.23;2.30;;;;;;;3.96;78.84;97652.19;5065469;28;20577;-66
2022/02/06 09:41:37;;;;;;;11.63;2.10;;;;;;;4.01;80.05;97653.81;5065030;28;20140;-65
2022/02/06 09:44:03;;;;;;;8.48;1.30;;;;;;;4.12;80.50;97636.38;5064838;28;20025;-65
2022/02/06 09:46:28;;;;;;;7.72;1.92;;;;;;;4.27;80.25;97652.25;5065531;28;20027;-66
2022/02/06 09:48:55;;;;;;;11.68;2.10;;;;;;;4.26;79.01;97648.03;5065293;28;20067;-66
2022/02/06 09:51:23;;;;;;;11.05;2.10;;;;;;;4.22;78.89;97640.41;5065628;28;20268;-66
2022/02/06 09:53:48;;;;;;;12.50;2.25;;;;;;;4.19;79.44;97643.06;5065342;28;20419;-66
2022/02/06 09:56:16;;;;;;;8.45;2.08;;;;;;;4.16;79.39;97632.88;5065362;28;20047;-64
2022/02/06 09:59:00;;;;;;;8.80;2.00;;;;;;;4.17;78.21;97638.88;5065200;28;20025;-64
2022/02/06 10:01:26;;;;;;;9.98;1.90;;;;;;;4.09;78.82;97632.19;5065410;28;20152;-66
2022/02/06 10:04:02;;;;;;;8.90;2.22;;;;;;;4.11;79.63;97637.28;5065075;28;20029;-65
2022/02/06 10:07:05;;;;;;;5.10;1.75;;;;;;;4.04;78.26;97628.06;5065284;28;20048;-66
2022/02/06 10:10:03;;;;;;;8.38;1.83;;;;;;;3.90;78.33;97631.00;5042197;28;20468;-66
2022/02/06 10:12:35;;;;;;;8.77;2.35;;;;;;;3.82;78.68;97628.63;5042509;28;20018;-65
2022/02/06 10:15:01;;;;;;;22.23;3.13;;;;;;;3.76;79.10;97636.47;5042460;28;20026;-65
2022/02/06 10:17:27;;;;;;;8.80;1.73;;;;;;;3.67;79.50;97635.84;5042426;28;20041;-66
2022/02/06 10:19:53;;;;;;;8.15;1.98;;;;;;;3.55;79.73;97625.88;5042176;28;20603;-66
2022/02/06 10:22:34;;;;;;;13.60;1.80;;;;;;;3.53;80.38;97628.47;5025548;28;20037;-67
2022/02/06 10:25:03;;;;;;;8.88;1.52;;;;;;;3.46;80.28;97625.25;5042087;28;20052;-65
2022/02/06 10:28:45;;;;;;;14.40;1.80;;;;;;;3.40;80.03;97619.41;5042242;28;20117;-66
2022/02/06 10:30:42;;;;;;;10.07;2.20;;;;;;;3.22;79.08;97601.00;5034990;28;20049;-65
2022/02/06 10:33:52;;;;;;;3.58;0.95;;;;;;;3.07;78.22;97610.75;5041864;28;20035;-66
2022/02/06 10:36:27;;;;;;;6.35;1.23;;;;;;;2.84;78.67;97616.41;5037631;28;20029;-65
2022/02/06 10:39:06;;;;;;;3.60;0.77;;;;;;;2.66;79.53;97605.69;5041916;28;20052;-65
2022/02/06 10:41:34;;;;;;;4.85;1.10;;;;;;;2.47;79.84;97600.97;5041417;28;20059;-65
2022/02/06 10:44:07;;;;;;;8.52;1.52;;;;;;;2.30;80.31;97588.47;5058260;28;20041;-67
2022/02/06 10:46:58;;;;;;;6.22;1.05;;;;;;;2.26;81.17;97586.00;5064637;28;20017;-65
2022/02/06 10:49:25;;;;;;;9.55;1.80;;;;;;;2.28;81.98;97584.28;5064048;28;20029;-65
2022/02/06 10:51:57;;;;;;;8.68;1.42;;;;;;;2.23;82.28;97577.53;5064541;28;20024;-64
2022/02/06 10:54:29;;;;;;;4.88;1.27;;;;;;;2.18;82.55;97579.34;5064186;28;20017;-65
2022/02/06 10:57:01;;;;;;;9.60;1.38;;;;;;;2.14;82.68;97582.81;5064402;28;20131;-65
2022/02/06 10:59:27;;;;;;;4.93;1.02;;;;;;;2.12;83.35;97574.34;5064130;28;20457;-65
2022/02/06 11:01:54;;;;;;;6.93;1.30;;;;;;;2.16;83.66;97570.00;5064068;28;20044;-64
2022/02/06 11:04:32;;;;;;;4.90;1.75;;;;;;;2.24;83.98;97563.00;5064089;28;20455;-64
2022/02/06 11:07:16;;;;;;;6.63;2.13;;;;;;;2.28;84.28;97567.19;5064292;28;20051;-64
2022/02/06 11:09:42;;;;;;;12.48;1.92;;;;;;;2.36;84.37;97561.91;5063832;28;20017;-65
2022/02/06 11:12:13;;;;;;;10.57;2.95;;;;;;;2.44;84.85;97559.19;5063929;28;20031;-63
2022/02/06 11:14:45;;;;;;;3.50;1.20;;;;;;;2.53;84.37;97553.00;5063909;28;20017;-64
2022/02/06 11:17:26;;;;;;;7.50;1.30;;;;;;;2.65;84.51;97555.31;5064066;28;20025;-64
2022/02/06 11:19:58;;;;;;;6.20;1.75;;;;;;;2.79;84.49;97562.69;5063703;28;20029;-65
2022/02/06 11:22:25;;;;;;;6.82;2.30;;;;;;;3.06;84.65;97557.81;5063768;28;20044;-65
2022/02/06 11:24:50;;;;;;;8.48;1.40;;;;;;;3.27;84.62;97547.06;5062237;28;20039;-64
2022/02/06 11:27:16;;;;;;;7.32;2.00;;;;;;;3.33;84.12;97537.50;5063720;28;20381;-64
2022/02/06 11:29:42;;;;;;;6.72;1.58;;;;;;;3.46;84.16;97538.03;5063640;28;20080;-63
2022/02/06 11:32:08;;;;;;;6.15;1.45;;;;;;;3.54;84.29;97526.72;5063987;28;20017;-64
2022/02/06 11:34:40;;;;;;;12.45;2.05;;;;;;;4.06;85.04;97536.44;5063431;28;20131;-65
2022/02/06 11:46:15;;;;;;;9.93;1.73;;;;;;;4.39;79.94;97510.66;5063650;28;20033;-66
2022/02/06 11:48:44;;;;;;;5.63;1.42;;;;;;;4.29;80.34;97498.97;5063207;28;20017;-66
2022/02/06 11:51:14;;;;;;;5.78;1.27;;;;;;;4.33;80.05;97498.84;5063426;28;20028;-65
2022/02/06 11:53:40;;;;;;;7.65;1.50;;;;;;;4.19;78.68;97503.53;5063441;28;20021;-65
2022/02/06 11:56:35;;;;;;;11.63;1.83;;;;;;;4.25;80.34;97494.81;5061918;28;20021;-65
2022/02/06 11:59:13;;;;;;;11.75;2.08;;;;;;;4.36;80.48;97500.47;5063151;28;20028;-66
2022/02/06 12:01:42;;;;;;;8.63;1.42;;;;;;;4.38;80.61;97503.84;5063356;28;20033;-65
2022/02/06 12:04:23;;;;;;;5.18;1.80;;;;;;;4.29;78.76;97499.81;5063093;28;20132;-65
2022/02/06 12:06:55;;;;;;;6.53;2.22;;;;;;;4.26;79.80;97487.06;5062718;28;20385;-66
2022/02/06 12:09:23;;;;;;;6.37;1.53;;;;;;;4.32;80.39;97486.03;5063313;28;20115;-65
2022/02/06 12:12:08;;;;;;;1.85;1.17;;;;;;;4.47;79.00;97485.56;5063399;28;20368;-67
2022/02/06 12:14:41;;;;;;;4.82;1.23;;;;;;;4.45;77.93;97478.81;5062939;28;20021;-65
2022/02/06 12:17:17;;;;;;;4.20;1.45;;;;;;;4.49;77.00;97477.81;5063312;28;20028;-65
2022/02/06 12:19:43;;;;;;;5.50;1.58;;;;;;;4.46;76.25;97472.78;5062919;28;20028;-65
2022/02/06 12:22:26;;;;;;;4.53;1.20;;;;;;;4.41;76.14;97478.06;5062638;28;20021;-64
2022/02/06 12:24:53;;;;;;;3.70;1.25;;;;;;;4.42;76.63;97476.34;5062753;28;20044;-63
2022/02/06 12:27:26;;;;;;;5.05;0.80;;;;;;;4.34;75.76;97453.47;5062462;28;20031;-63
2022/02/06 12:30:00;;;;;;;5.78;1.15;;;;;;;4.30;76.74;97449.28;5062913;28;20021;-62
2022/02/06 12:32:34;;;;;;;6.28;1.20;;;;;;;4.20;76.03;97447.00;5063045;28;20074;-64
2022/02/06 12:37:46;;;;;;;8.10;1.58;;;;;;;3.91;78.00;97438.47;5063359;28;20031;-63
2022/02/06 12:40:14;;;;;;;8.27;1.42;;;;;;;3.89;79.06;97447.91;5062651;28;20101;-64
2022/02/06 12:42:43;;;;;;;9.85;1.58;;;;;;;3.89;79.00;97452.19;5062553;28;20078;-63
2022/02/06 12:45:15;;;;;;;9.82;2.10;;;;;;;3.85;79.16;97454.00;5062928;28;20393;-63
2022/02/06 12:47:51;;;;;;;3.33;0.90;;;;;;;3.80;78.51;97450.75;5062824;28;20021;-63
2022/02/06 12:50:30;;;;;;;2.60;1.00;;;;;;;3.72;78.21;97451.78;5062312;28;20020;-65
2022/02/06 12:52:56;;;;;;;7.43;1.60;;;;;;;3.65;78.65;97439.19;5062741;28;20017;-64
2022/02/06 12:55:26;;;;;;;8.00;1.58;;;;;;;3.60;79.27;97439.31;5062445;28;20392;-64
2022/02/06 12:57:53;;;;;;;9.93;2.00;;;;;;;3.60;78.64;97431.63;5062737;28;20139;-63
2022/02/06 13:00:41;;;;;;;7.95;1.60;;;;;;;3.61;79.63;97425.59;5062176;28;20051;-63
2022/02/06 13:03:22;;;;;;;5.43;1.42;;;;;;;3.69;79.99;97418.53;5062004;28;20029;-62
2022/02/06 13:05:51;;;;;;;3.30;1.20;;;;;;;3.59;79.43;97412.81;5062102;28;20548;-61
2022/02/06 13:08:17;;;;;;;8.70;1.88;;;;;;;3.47;79.20;97420.84;5061987;28;20028;-59
2022/02/06 13:10:50;;;;;;;10.93;1.98;;;;;;;3.28;79.76;97407.69;5061859;28;20021;-64
2022/02/06 13:13:18;;;;;;;7.60;2.35;;;;;;;3.16;80.57;97403.75;5061745;28;20036;-64
2022/02/06 13:15:52;;;;;;;6.50;1.15;;;;;;;2.87;80.09;97378.03;5061797;28;20511;-65
2022/02/06 13:18:43;;;;;;;7.43;0.90;;;;;;;2.63;80.88;97375.22;5063716;28;20029;-64
2022/02/06 13:21:38;;;;;;;1.58;0.80;;;;;;;2.37;81.18;97391.19;5065391;28;20075;-65
2022/02/06 13:24:47;;;;;;;2.17;0.82;;;;;;;2.19;82.25;97390.78;5065393;28;20064;-64
2022/02/06 13:27:09;;;;;;;2.70;0.90;;;;;;;2.05;82.86;97374.00;5064050;28;20032;-65
2022/02/06 13:29:51;;;;;;;5.00;0.75;;;;;;;1.99;83.44;97369.03;5065221;28;20033;-64
2022/02/06 13:32:33;;;;;;;2.78;0.70;;;;;;;1.94;83.82;97371.69;5065343;28;20021;-64
2022/02/06 13:35:10;;;;;;;2.63;0.70;;;;;;;1.93;84.28;97362.31;5063636;28;20378;-63
2022/02/06 13:37:56;;;;;;;1.17;0.60;;;;;;;1.95;84.58;97355.47;5065245;28;20025;-63
2022/02/06 13:40:27;;;;;;;1.77;0.68;;;;;;;2.02;85.07;97360.44;5064839;28;20043;-64
2022/02/06 13:42:59;;;;;;;1.77;0.80;;;;;;;2.09;85.28;97360.25;5064923;28;20017;-64
2022/02/06 13:45:25;;;;;;;1.73;0.85;;;;;;;2.23;85.41;97367.63;5065164;28;20094;-63
2022/02/06 13:47:52;;;;;;;2.88;1.27;;;;;;;2.32;85.94;97363.16;5064998;28;20024;-63
2022/02/06 13:50:18;;;;;;;1.60;0.50;;;;;;;2.44;86.03;97369.69;5064337;28;20357;-63
2022/02/06 13:52:45;;;;;;;2.67;0.57;;;;;;;2.47;85.54;97374.75;5065128;28;20021;-63
2022/02/06 13:55:16;;;;;;;1.95;0.50;;;;;;;2.55;85.80;97367.72;5064944;28;20044;-63
2022/02/06 13:57:41;;;;;;;2.20;0.60;;;;;;;2.68;85.48;97378.50;5065151;28;20104;-65
2022/02/06 14:00:15;;;;;;;3.55;0.55;;;;;;;2.71;85.19;97373.31;5064769;28;20025;-64
2022/02/06 14:02:54;;;;;;;4.88;0.88;;;;;;;2.78;85.40;97375.69;5064583;28;20025;-63
2022/02/06 14:05:25;;;;;;;5.78;1.05;;;;;;;2.79;85.05;97365.41;5064619;28;20032;-65
2022/02/06 14:08:13;;;;;;;3.63;0.90;;;;;;;2.77;85.43;97358.63;5064618;28;20086;-64
2022/02/06 14:11:00;;;;;;;2.63;0.70;;;;;;;2.78;84.74;97368.00;5064376;28;20437;-64
2022/02/06 14:13:26;;;;;;;3.03;0.70;;;;;;;2.68;84.39;97363.13;5064676;28;20029;-65
2022/02/06 14:16:06;;;;;;;0.57;0.47;;;;;;;2.56;84.57;97363.41;5064430;28;20100;-65
2022/02/06 14:18:32;;;;;;;8.45;0.93;;;;;;;2.48;84.09;97366.19;5064091;28;20052;-64